sensor_id;sensor_type;location;lat;lon;timestamp;temperature;humidity
3281;DHT22;1652;51.318;6.202;2022-12-18T00:02:13;-4.80;99.90
3281;DHT22;1652;51.318;6.202;2022-12-18T00:04:39;-4.90;99.90
3281;DHT22;1652;51.318;6.202;2022-12-18T00:07:09;-4.90;99.90
3281;DHT22;1652;51.318;6.202;2022-12-18T00:09:36;-4.80;99.90
3281;DHT22;1652;51.318;6.202;2022-12-18T00:12:06;-4.60;99.90
3281;DHT22;1652;51.318;6.202;2022-12-18T00:14:41;-4.60;99.90
3281;DHT22;1652;51.318;6.202;2022-12-18T00:17:08;-4.70;99.90
3281;DHT22;1652;51.318;6.202;2022-12-18T00:19:35;-4.70;99.90
3281;DHT22;1652;51.318;6.202;2022-12-18T00:22:02;-4.80;99.90
3281;DHT22;1652;51.318;6.202;2022-12-18T00:24:29;-4.90;99.90
3281;DHT22;1652;51.318;6.202;2022-12-18T00:26:56;-4.90;99.90
3281;DHT22;1652;51.318;6.202;2022-12-18T00:29:22;-4.70;99.90
3281;DHT22;1652;51.318;6.202;2022-12-18T00:31:49;-4.70;99.90
3281;DHT22;1652;51.318;6.202;2022-12-18T00:34:16;-4.70;99.90
3281;DHT22;1652;51.318;6.202;2022-12-18T00:36:42;-4.70;99.90
3281;DHT22;1652;51.318;6.202;2022-12-18T00:39:10;-4.70;99.90
3281;DHT22;1652;51.318;6.202;2022-12-18T00:41:38;-4.80;99.90
3281;DHT22;1652;51.318;6.202;2022-12-18T00:44:23;-4.80;99.90
3281;DHT22;1652;51.318;6.202;2022-12-18T00:46:50;-4.70;99.90
3281;DHT22;1652;51.318;6.202;2022-12-18T00:49:18;-4.80;99.90
3281;DHT22;1652;51.318;6.202;2022-12-18T00:51:45;-4.80;99.90
3281;DHT22;1652;51.318;6.202;2022-12-18T00:54:12;-4.80;99.90
3281;DHT22;1652;51.318;6.202;2022-12-18T00:56:39;-4.90;99.90
3281;DHT22;1652;51.318;6.202;2022-12-18T00:59:14;-4.90;99.90
3281;DHT22;1652;51.318;6.202;2022-12-18T01:01:41;-4.90;99.90
3281;DHT22;1652;51.318;6.202;2022-12-18T01:04:09;-5.00;99.90
3281;DHT22;1652;51.318;6.202;2022-12-18T01:06:36;-5.10;99.90
3281;DHT22;1652;51.318;6.202;2022-12-18T01:09:03;-5.10;99.90
3281;DHT22;1652;51.318;6.202;2022-12-18T01:11:30;-5.10;99.90
3281;DHT22;1652;51.318;6.202;2022-12-18T01:13:57;-5.00;99.90
3281;DHT22;1652;51.318;6.202;2022-12-18T01:16:25;-5.10;99.90
3281;DHT22;1652;51.318;6.202;2022-12-18T01:18:53;-5.00;99.90
3281;DHT22;1652;51.318;6.202;2022-12-18T01:21:22;-4.90;99.90
3281;DHT22;1652;51.318;6.202;2022-12-18T01:23:54;-4.90;99.90
3281;DHT22;1652;51.318;6.202;2022-12-18T01:26:22;-5.00;99.90
3281;DHT22;1652;51.318;6.202;2022-12-18T01:28:49;-5.10;99.90
3281;DHT22;1652;51.318;6.202;2022-12-18T01:31:25;-5.10;99.90
3281;DHT22;1652;51.318;6.202;2022-12-18T01:33:52;-5.30;99.90
3281;DHT22;1652;51.318;6.202;2022-12-18T01:38:50;-5.50;99.90
3281;DHT22;1652;51.318;6.202;2022-12-18T01:41:22;-5.60;99.90
3281;DHT22;1652;51.318;6.202;2022-12-18T01:43:57;-5.70;99.90
3281;DHT22;1652;51.318;6.202;2022-12-18T01:46:26;-5.70;99.90
3281;DHT22;1652;51.318;6.202;2022-12-18T01:49:02;-5.80;99.90
3281;DHT22;1652;51.318;6.202;2022-12-18T01:51:30;-5.80;99.90
3281;DHT22;1652;51.318;6.202;2022-12-18T01:53:57;-5.50;99.90
3281;DHT22;1652;51.318;6.202;2022-12-18T01:56:25;-5.40;99.90
3281;DHT22;1652;51.318;6.202;2022-12-18T01:59:00;-5.30;99.90
3281;DHT22;1652;51.318;6.202;2022-12-18T02:01:30;-5.20;99.90
3281;DHT22;1652;51.318;6.202;2022-12-18T02:04:24;-5.20;99.90
3281;DHT22;1652;51.318;6.202;2022-12-18T02:07:10;-5.40;99.90
3281;DHT22;1652;51.318;6.202;2022-12-18T02:09:48;-5.70;99.90
3281;DHT22;1652;51.318;6.202;2022-12-18T02:12:28;-5.80;99.90
3281;DHT22;1652;51.318;6.202;2022-12-18T02:20:17;-5.60;99.90
3281;DHT22;1652;51.318;6.202;2022-12-18T02:26:02;-5.60;99.90
3281;DHT22;1652;51.318;6.202;2022-12-18T02:28:35;-5.60;99.90
3281;DHT22;1652;51.318;6.202;2022-12-18T02:31:05;-5.50;99.90
3281;DHT22;1652;51.318;6.202;2022-12-18T02:33:35;-5.30;99.90
3281;DHT22;1652;51.318;6.202;2022-12-18T02:36:03;-5.20;99.90
3281;DHT22;1652;51.318;6.202;2022-12-18T02:38:31;-5.20;99.90
3281;DHT22;1652;51.318;6.202;2022-12-18T02:40:59;-5.20;99.90
3281;DHT22;1652;51.318;6.202;2022-12-18T02:43:26;-5.20;99.90
3281;DHT22;1652;51.318;6.202;2022-12-18T02:45:56;-5.20;99.90
3281;DHT22;1652;51.318;6.202;2022-12-18T02:48:27;-5.20;99.90
3281;DHT22;1652;51.318;6.202;2022-12-18T02:51:12;-5.20;99.90
3281;DHT22;1652;51.318;6.202;2022-12-18T02:53:48;-5.20;99.90
3281;DHT22;1652;51.318;6.202;2022-12-18T02:56:30;-5.20;99.90
3281;DHT22;1652;51.318;6.202;2022-12-18T02:59:13;-5.30;99.90
3281;DHT22;1652;51.318;6.202;2022-12-18T03:01:52;-5.30;99.90
3281;DHT22;1652;51.318;6.202;2022-12-18T03:04:54;-5.20;99.90
3281;DHT22;1652;51.318;6.202;2022-12-18T03:07:35;-5.30;99.90
3281;DHT22;1652;51.318;6.202;2022-12-18T03:10:05;-5.30;99.90
3281;DHT22;1652;51.318;6.202;2022-12-18T03:12:36;-5.40;99.90
3281;DHT22;1652;51.318;6.202;2022-12-18T03:15:11;-5.30;99.90
3281;DHT22;1652;51.318;6.202;2022-12-18T03:17:48;-5.20;99.90
3281;DHT22;1652;51.318;6.202;2022-12-18T03:20:20;-5.20;99.90
3281;DHT22;1652;51.318;6.202;2022-12-18T03:23:05;-5.30;99.90
3281;DHT22;1652;51.318;6.202;2022-12-18T03:25:35;-5.40;99.90
3281;DHT22;1652;51.318;6.202;2022-12-18T03:28:06;-5.30;99.90
3281;DHT22;1652;51.318;6.202;2022-12-18T03:30:37;-5.30;99.90
3281;DHT22;1652;51.318;6.202;2022-12-18T03:33:12;-5.30;99.90
3281;DHT22;1652;51.318;6.202;2022-12-18T03:35:41;-5.20;99.90
3281;DHT22;1652;51.318;6.202;2022-12-18T03:38:09;-5.20;99.90
3281;DHT22;1652;51.318;6.202;2022-12-18T03:40:59;-5.20;99.90
3281;DHT22;1652;51.318;6.202;2022-12-18T03:46:14;-5.10;99.90
3281;DHT22;1652;51.318;6.202;2022-12-18T03:48:48;-5.10;99.90
3281;DHT22;1652;51.318;6.202;2022-12-18T03:51:26;-5.00;99.90
3281;DHT22;1652;51.318;6.202;2022-12-18T03:54:03;-5.00;99.90
3281;DHT22;1652;51.318;6.202;2022-12-18T03:56:35;-5.10;99.90
3281;DHT22;1652;51.318;6.202;2022-12-18T03:59:04;-5.00;99.90
3281;DHT22;1652;51.318;6.202;2022-12-18T04:01:34;-4.90;99.90
3281;DHT22;1652;51.318;6.202;2022-12-18T04:04:03;-4.90;99.90
3281;DHT22;1652;51.318;6.202;2022-12-18T04:06:32;-4.90;99.90
3281;DHT22;1652;51.318;6.202;2022-12-18T04:09:02;-4.80;99.90
3281;DHT22;1652;51.318;6.202;2022-12-18T04:11:30;-4.90;99.90
3281;DHT22;1652;51.318;6.202;2022-12-18T04:13:58;-4.90;99.90
3281;DHT22;1652;51.318;6.202;2022-12-18T04:16:27;-5.00;99.90
3281;DHT22;1652;51.318;6.202;2022-12-18T04:18:54;-4.90;99.90
3281;DHT22;1652;51.318;6.202;2022-12-18T04:21:21;-4.90;99.90
3281;DHT22;1652;51.318;6.202;2022-12-18T04:23:49;-4.90;99.90
3281;DHT22;1652;51.318;6.202;2022-12-18T04:26:16;-4.90;99.90
3281;DHT22;1652;51.318;6.202;2022-12-18T04:28:42;-4.90;99.90
3281;DHT22;1652;51.318;6.202;2022-12-18T04:31:09;-4.90;99.90
3281;DHT22;1652;51.318;6.202;2022-12-18T04:33:36;-4.90;99.90
3281;DHT22;1652;51.318;6.202;2022-12-18T04:36:04;-4.90;99.90
3281;DHT22;1652;51.318;6.202;2022-12-18T04:38:31;-4.90;99.90
3281;DHT22;1652;51.318;6.202;2022-12-18T04:40:58;-4.90;99.90
3281;DHT22;1652;51.318;6.202;2022-12-18T04:43:25;-4.90;99.90
3281;DHT22;1652;51.318;6.202;2022-12-18T04:45:51;-4.90;99.90
3281;DHT22;1652;51.318;6.202;2022-12-18T04:48:18;-4.90;99.90
3281;DHT22;1652;51.318;6.202;2022-12-18T04:50:46;-4.80;99.90
3281;DHT22;1652;51.318;6.202;2022-12-18T04:53:13;-4.80;99.90
3281;DHT22;1652;51.318;6.202;2022-12-18T04:55:40;-4.80;99.90
3281;DHT22;1652;51.318;6.202;2022-12-18T04:58:06;-4.70;99.90
3281;DHT22;1652;51.318;6.202;2022-12-18T05:00:35;-4.70;99.90
3281;DHT22;1652;51.318;6.202;2022-12-18T05:03:02;-4.70;99.90
3281;DHT22;1652;51.318;6.202;2022-12-18T05:05:29;-4.70;99.90
3281;DHT22;1652;51.318;6.202;2022-12-18T05:07:56;-4.70;99.90
3281;DHT22;1652;51.318;6.202;2022-12-18T05:10:23;-4.70;99.90
3281;DHT22;1652;51.318;6.202;2022-12-18T05:12:49;-4.60;99.90
3281;DHT22;1652;51.318;6.202;2022-12-18T05:15:28;-4.60;99.90
3281;DHT22;1652;51.318;6.202;2022-12-18T05:17:56;-4.60;99.90
3281;DHT22;1652;51.318;6.202;2022-12-18T05:20:24;-4.70;99.90
3281;DHT22;1652;51.318;6.202;2022-12-18T05:22:52;-4.60;99.90
3281;DHT22;1652;51.318;6.202;2022-12-18T05:25:19;-4.80;99.90
3281;DHT22;1652;51.318;6.202;2022-12-18T05:27:46;-4.70;99.90
3281;DHT22;1652;51.318;6.202;2022-12-18T05:30:14;-4.70;99.90
3281;DHT22;1652;51.318;6.202;2022-12-18T05:32:41;-4.70;99.90
3281;DHT22;1652;51.318;6.202;2022-12-18T05:35:09;-4.60;99.90
3281;DHT22;1652;51.318;6.202;2022-12-18T05:37:36;-4.60;99.90
3281;DHT22;1652;51.318;6.202;2022-12-18T05:40:09;-4.50;99.90
3281;DHT22;1652;51.318;6.202;2022-12-18T05:42:36;-4.50;99.90
3281;DHT22;1652;51.318;6.202;2022-12-18T05:45:03;-4.40;99.90
3281;DHT22;1652;51.318;6.202;2022-12-18T05:47:30;-4.40;99.90
3281;DHT22;1652;51.318;6.202;2022-12-18T05:49:57;-4.40;99.90
3281;DHT22;1652;51.318;6.202;2022-12-18T05:52:24;-4.40;99.90
3281;DHT22;1652;51.318;6.202;2022-12-18T05:54:51;-4.40;99.90
3281;DHT22;1652;51.318;6.202;2022-12-18T05:57:17;-4.40;99.90
3281;DHT22;1652;51.318;6.202;2022-12-18T05:59:44;-4.40;99.90
3281;DHT22;1652;51.318;6.202;2022-12-18T06:02:11;-4.40;99.90
3281;DHT22;1652;51.318;6.202;2022-12-18T06:04:38;-4.30;99.90
3281;DHT22;1652;51.318;6.202;2022-12-18T06:07:04;-4.30;99.90
3281;DHT22;1652;51.318;6.202;2022-12-18T06:09:31;-4.30;99.90
3281;DHT22;1652;51.318;6.202;2022-12-18T06:11:58;-4.30;99.90
3281;DHT22;1652;51.318;6.202;2022-12-18T06:14:25;-4.30;99.90
3281;DHT22;1652;51.318;6.202;2022-12-18T06:16:52;-4.30;99.90
3281;DHT22;1652;51.318;6.202;2022-12-18T06:19:19;-4.30;99.90
3281;DHT22;1652;51.318;6.202;2022-12-18T06:21:46;-4.30;99.90
3281;DHT22;1652;51.318;6.202;2022-12-18T06:24:12;-4.20;99.90
3281;DHT22;1652;51.318;6.202;2022-12-18T06:26:39;-4.30;99.90
3281;DHT22;1652;51.318;6.202;2022-12-18T06:29:06;-4.30;99.90
3281;DHT22;1652;51.318;6.202;2022-12-18T06:31:33;-4.30;99.90
3281;DHT22;1652;51.318;6.202;2022-12-18T06:34:02;-4.30;99.90
3281;DHT22;1652;51.318;6.202;2022-12-18T06:36:29;-4.30;99.90
3281;DHT22;1652;51.318;6.202;2022-12-18T06:38:56;-4.40;99.90
3281;DHT22;1652;51.318;6.202;2022-12-18T06:41:23;-4.40;99.90
3281;DHT22;1652;51.318;6.202;2022-12-18T06:43:50;-4.40;99.90
3281;DHT22;1652;51.318;6.202;2022-12-18T06:46:23;-4.40;99.90
3281;DHT22;1652;51.318;6.202;2022-12-18T06:48:50;-4.40;99.90
3281;DHT22;1652;51.318;6.202;2022-12-18T06:51:22;-4.40;99.90
3281;DHT22;1652;51.318;6.202;2022-12-18T06:53:49;-4.40;99.90
3281;DHT22;1652;51.318;6.202;2022-12-18T06:56:16;-4.40;99.90
3281;DHT22;1652;51.318;6.202;2022-12-18T06:58:43;-4.40;99.90
3281;DHT22;1652;51.318;6.202;2022-12-18T07:01:11;-4.40;99.90
3281;DHT22;1652;51.318;6.202;2022-12-18T07:03:39;-4.40;99.90
3281;DHT22;1652;51.318;6.202;2022-12-18T07:06:14;-4.40;99.90
3281;DHT22;1652;51.318;6.202;2022-12-18T07:08:41;-4.40;99.90
3281;DHT22;1652;51.318;6.202;2022-12-18T07:11:08;-4.30;99.90
3281;DHT22;1652;51.318;6.202;2022-12-18T07:13:35;-4.40;99.90
3281;DHT22;1652;51.318;6.202;2022-12-18T07:16:07;-4.30;99.90
3281;DHT22;1652;51.318;6.202;2022-12-18T07:18:43;-4.30;99.90
3281;DHT22;1652;51.318;6.202;2022-12-18T07:21:12;-4.40;99.90
3281;DHT22;1652;51.318;6.202;2022-12-18T07:23:39;-4.40;99.90
3281;DHT22;1652;51.318;6.202;2022-12-18T07:26:12;-4.30;99.90
3281;DHT22;1652;51.318;6.202;2022-12-18T07:28:41;-4.30;99.90
3281;DHT22;1652;51.318;6.202;2022-12-18T07:31:13;-4.30;99.90
3281;DHT22;1652;51.318;6.202;2022-12-18T07:33:41;-4.30;99.90
3281;DHT22;1652;51.318;6.202;2022-12-18T07:36:09;-4.30;99.90
3281;DHT22;1652;51.318;6.202;2022-12-18T07:38:36;-4.20;99.90
3281;DHT22;1652;51.318;6.202;2022-12-18T07:41:04;-4.20;99.90
3281;DHT22;1652;51.318;6.202;2022-12-18T07:43:33;-4.30;99.90
3281;DHT22;1652;51.318;6.202;2022-12-18T07:46:00;-4.20;99.90
3281;DHT22;1652;51.318;6.202;2022-12-18T07:48:28;-4.20;99.90
3281;DHT22;1652;51.318;6.202;2022-12-18T07:51:02;-4.10;99.90
3281;DHT22;1652;51.318;6.202;2022-12-18T07:53:30;-4.10;99.90
3281;DHT22;1652;51.318;6.202;2022-12-18T07:55:58;-4.00;99.90
3281;DHT22;1652;51.318;6.202;2022-12-18T07:58:45;-4.00;99.90
3281;DHT22;1652;51.318;6.202;2022-12-18T08:01:13;-4.00;99.90
3281;DHT22;1652;51.318;6.202;2022-12-18T08:03:40;-4.00;99.90
3281;DHT22;1652;51.318;6.202;2022-12-18T08:06:09;-4.00;99.90
3281;DHT22;1652;51.318;6.202;2022-12-18T08:08:36;-4.00;99.90
3281;DHT22;1652;51.318;6.202;2022-12-18T08:11:03;-3.90;99.90
3281;DHT22;1652;51.318;6.202;2022-12-18T08:13:30;-3.90;99.90
3281;DHT22;1652;51.318;6.202;2022-12-18T08:15:59;-3.80;99.90
3281;DHT22;1652;51.318;6.202;2022-12-18T08:18:26;-3.80;99.90
3281;DHT22;1652;51.318;6.202;2022-12-18T08:20:53;-3.80;99.90
3281;DHT22;1652;51.318;6.202;2022-12-18T08:23:20;-3.70;99.90
3281;DHT22;1652;51.318;6.202;2022-12-18T08:25:47;-3.60;99.90
3281;DHT22;1652;51.318;6.202;2022-12-18T08:28:14;-3.60;99.90
3281;DHT22;1652;51.318;6.202;2022-12-18T08:30:40;-3.50;99.90
3281;DHT22;1652;51.318;6.202;2022-12-18T08:33:09;-3.50;99.90
3281;DHT22;1652;51.318;6.202;2022-12-18T08:35:36;-3.40;99.90
3281;DHT22;1652;51.318;6.202;2022-12-18T08:38:10;-3.30;99.90
3281;DHT22;1652;51.318;6.202;2022-12-18T08:40:37;-3.30;99.90
3281;DHT22;1652;51.318;6.202;2022-12-18T08:43:04;-3.30;99.90
3281;DHT22;1652;51.318;6.202;2022-12-18T08:45:50;-3.20;99.90
3281;DHT22;1652;51.318;6.202;2022-12-18T08:48:17;-3.10;99.90
3281;DHT22;1652;51.318;6.202;2022-12-18T08:50:55;-3.10;99.90
3281;DHT22;1652;51.318;6.202;2022-12-18T08:53:25;-3.00;99.90
3281;DHT22;1652;51.318;6.202;2022-12-18T08:55:58;-2.90;99.90
3281;DHT22;1652;51.318;6.202;2022-12-18T08:58:24;-2.90;99.90
3281;DHT22;1652;51.318;6.202;2022-12-18T09:00:51;-2.90;99.90
3281;DHT22;1652;51.318;6.202;2022-12-18T09:03:19;-2.80;99.90
3281;DHT22;1652;51.318;6.202;2022-12-18T09:05:46;-2.80;99.90
3281;DHT22;1652;51.318;6.202;2022-12-18T09:08:13;-2.70;99.90
3281;DHT22;1652;51.318;6.202;2022-12-18T09:10:45;-2.70;99.90
3281;DHT22;1652;51.318;6.202;2022-12-18T09:13:12;-2.70;99.90
3281;DHT22;1652;51.318;6.202;2022-12-18T09:15:47;-2.70;99.90
3281;DHT22;1652;51.318;6.202;2022-12-18T09:18:16;-2.60;99.90
3281;DHT22;1652;51.318;6.202;2022-12-18T09:20:43;-2.50;99.90
3281;DHT22;1652;51.318;6.202;2022-12-18T09:23:11;-2.40;99.90
3281;DHT22;1652;51.318;6.202;2022-12-18T09:25:38;-2.40;99.90
3281;DHT22;1652;51.318;6.202;2022-12-18T09:28:10;-2.40;99.90
3281;DHT22;1652;51.318;6.202;2022-12-18T09:30:39;-2.30;99.90
3281;DHT22;1652;51.318;6.202;2022-12-18T09:33:06;-2.30;99.90
3281;DHT22;1652;51.318;6.202;2022-12-18T09:35:36;-2.20;99.90
3281;DHT22;1652;51.318;6.202;2022-12-18T09:38:03;-2.10;99.90
3281;DHT22;1652;51.318;6.202;2022-12-18T09:40:35;-2.10;99.90
3281;DHT22;1652;51.318;6.202;2022-12-18T09:43:06;-2.00;99.90
3281;DHT22;1652;51.318;6.202;2022-12-18T09:45:46;-1.90;99.90
3281;DHT22;1652;51.318;6.202;2022-12-18T09:48:25;-1.90;99.90
3281;DHT22;1652;51.318;6.202;2022-12-18T09:50:57;-1.90;99.60
3281;DHT22;1652;51.318;6.202;2022-12-18T09:53:29;-1.80;98.70
3281;DHT22;1652;51.318;6.202;2022-12-18T09:56:00;-1.80;99.60
3281;DHT22;1652;51.318;6.202;2022-12-18T09:58:36;-1.70;97.40
3281;DHT22;1652;51.318;6.202;2022-12-18T10:01:12;-1.70;97.80
3281;DHT22;1652;51.318;6.202;2022-12-18T10:03:40;-1.60;97.10
3281;DHT22;1652;51.318;6.202;2022-12-18T10:06:32;-1.60;96.50
3281;DHT22;1652;51.318;6.202;2022-12-18T10:17:41;-1.40;92.80
3281;DHT22;1652;51.318;6.202;2022-12-18T10:20:27;-1.40;94.40
3281;DHT22;1652;51.318;6.202;2022-12-18T10:28:30;-1.20;93.80
3281;DHT22;1652;51.318;6.202;2022-12-18T10:30:57;-1.20;91.70
3281;DHT22;1652;51.318;6.202;2022-12-18T10:33:28;-1.20;92.40
3281;DHT22;1652;51.318;6.202;2022-12-18T10:35:55;-1.20;92.40
3281;DHT22;1652;51.318;6.202;2022-12-18T10:38:32;-1.20;93.10
3281;DHT22;1652;51.318;6.202;2022-12-18T10:41:05;-1.10;93.00
3281;DHT22;1652;51.318;6.202;2022-12-18T10:43:39;-1.10;92.90
3281;DHT22;1652;51.318;6.202;2022-12-18T10:51:08;-1.00;90.90
3281;DHT22;1652;51.318;6.202;2022-12-18T10:53:40;-0.90;90.60
3281;DHT22;1652;51.318;6.202;2022-12-18T10:56:08;-0.90;91.50
3281;DHT22;1652;51.318;6.202;2022-12-18T10:58:37;-0.80;86.80
3281;DHT22;1652;51.318;6.202;2022-12-18T11:01:15;-0.80;89.40
3281;DHT22;1652;51.318;6.202;2022-12-18T11:06:27;-0.70;70.90
3281;DHT22;1652;51.318;6.202;2022-12-18T11:09:07;-0.70;46.80
3281;DHT22;1652;51.318;6.202;2022-12-18T11:11:50;-0.60;43.80
3281;DHT22;1652;51.318;6.202;2022-12-18T11:14:23;-0.60;34.50
3281;DHT22;1652;51.318;6.202;2022-12-18T11:16:51;-0.60;34.10
3281;DHT22;1652;51.318;6.202;2022-12-18T11:19:40;-0.50;35.00
3281;DHT22;1652;51.318;6.202;2022-12-18T11:22:29;-0.50;25.40
3281;DHT22;1652;51.318;6.202;2022-12-18T11:27:32;-0.50;14.00
3281;DHT22;1652;51.318;6.202;2022-12-18T11:30:23;-0.40;21.70
3281;DHT22;1652;51.318;6.202;2022-12-18T11:35:55;-0.40;16.20
3281;DHT22;1652;51.318;6.202;2022-12-18T11:38:51;-0.30;15.10
3281;DHT22;1652;51.318;6.202;2022-12-18T11:41:35;-0.30;14.80
3281;DHT22;1652;51.318;6.202;2022-12-18T11:44:26;-0.40;7.70
3281;DHT22;1652;51.318;6.202;2022-12-18T11:47:07;-0.30;8.30
3281;DHT22;1652;51.318;6.202;2022-12-18T11:49:36;-0.20;8.70
3281;DHT22;1652;51.318;6.202;2022-12-18T11:52:16;-0.30;1.00
3281;DHT22;1652;51.318;6.202;2022-12-18T11:54:45;-0.30;12.00
3281;DHT22;1652;51.318;6.202;2022-12-18T11:57:34;-0.30;19.20
3281;DHT22;1652;51.318;6.202;2022-12-18T12:00:15;-0.30;15.00
3281;DHT22;1652;51.318;6.202;2022-12-18T12:11:16;0.00;1.00
3281;DHT22;1652;51.318;6.202;2022-12-18T12:14:16;0.10;1.00
3281;DHT22;1652;51.318;6.202;2022-12-18T12:17:05;0.00;1.00
3281;DHT22;1652;51.318;6.202;2022-12-18T12:22:32;0.00;7.30
3281;DHT22;1652;51.318;6.202;2022-12-18T12:30:16;0.00;7.00
3281;DHT22;1652;51.318;6.202;2022-12-18T12:33:00;0.10;3.70
3281;DHT22;1652;51.318;6.202;2022-12-18T12:36:06;0.10;8.90
3281;DHT22;1652;51.318;6.202;2022-12-18T12:38:43;0.10;2.90
3281;DHT22;1652;51.318;6.202;2022-12-18T12:41:20;0.10;7.10
3281;DHT22;1652;51.318;6.202;2022-12-18T12:44:14;0.10;6.20
3281;DHT22;1652;51.318;6.202;2022-12-18T12:46:43;0.10;3.70
3281;DHT22;1652;51.318;6.202;2022-12-18T12:49:18;0.20;5.30
3281;DHT22;1652;51.318;6.202;2022-12-18T12:52:00;0.20;1.00
3281;DHT22;1652;51.318;6.202;2022-12-18T12:54:32;0.20;4.50
3281;DHT22;1652;51.318;6.202;2022-12-18T12:57:17;0.20;7.60
3281;DHT22;1652;51.318;6.202;2022-12-18T13:05:30;0.20;3.70
3281;DHT22;1652;51.318;6.202;2022-12-18T13:08:05;0.20;1.00
3281;DHT22;1652;51.318;6.202;2022-12-18T13:10:34;0.20;3.60
3281;DHT22;1652;51.318;6.202;2022-12-18T13:13:06;0.20;1.00
3281;DHT22;1652;51.318;6.202;2022-12-18T13:15:46;0.20;1.00
3281;DHT22;1652;51.318;6.202;2022-12-18T13:18:24;0.10;1.00
3281;DHT22;1652;51.318;6.202;2022-12-18T13:21:04;0.10;6.50
3281;DHT22;1652;51.318;6.202;2022-12-18T13:23:36;0.20;3.70
3281;DHT22;1652;51.318;6.202;2022-12-18T13:34:22;0.30;1.00
3281;DHT22;1652;51.318;6.202;2022-12-18T13:36:54;0.30;1.00
3281;DHT22;1652;51.318;6.202;2022-12-18T13:39:26;0.30;1.00
3281;DHT22;1652;51.318;6.202;2022-12-18T13:44:39;0.20;1.00
3281;DHT22;1652;51.318;6.202;2022-12-18T13:47:32;0.30;1.00
3281;DHT22;1652;51.318;6.202;2022-12-18T13:50:01;0.20;1.00
3281;DHT22;1652;51.318;6.202;2022-12-18T13:52:34;0.20;1.00
3281;DHT22;1652;51.318;6.202;2022-12-18T13:55:07;0.20;1.00
3281;DHT22;1652;51.318;6.202;2022-12-18T13:57:41;0.10;1.00
3281;DHT22;1652;51.318;6.202;2022-12-18T14:02:51;0.10;1.00
3281;DHT22;1652;51.318;6.202;2022-12-18T14:05:25;0.10;1.00
3281;DHT22;1652;51.318;6.202;2022-12-18T14:07:53;0.10;1.00
3281;DHT22;1652;51.318;6.202;2022-12-18T14:10:22;0.10;1.00
3281;DHT22;1652;51.318;6.202;2022-12-18T14:13:11;0.10;1.00
3281;DHT22;1652;51.318;6.202;2022-12-18T14:15:45;0.10;1.00
3281;DHT22;1652;51.318;6.202;2022-12-18T14:20:58;0.20;1.00
3281;DHT22;1652;51.318;6.202;2022-12-18T14:23:37;0.10;1.00
3281;DHT22;1652;51.318;6.202;2022-12-18T14:26:28;0.10;1.00
3281;DHT22;1652;51.318;6.202;2022-12-18T14:28:57;0.00;1.00
3281;DHT22;1652;51.318;6.202;2022-12-18T14:31:26;0.00;1.00
3281;DHT22;1652;51.318;6.202;2022-12-18T14:33:53;0.00;1.00
3281;DHT22;1652;51.318;6.202;2022-12-18T14:36:26;-0.10;1.00
3281;DHT22;1652;51.318;6.202;2022-12-18T14:38:54;-0.10;1.00
3281;DHT22;1652;51.318;6.202;2022-12-18T14:41:23;-0.10;1.00
3281;DHT22;1652;51.318;6.202;2022-12-18T14:43:51;-0.10;1.00
3281;DHT22;1652;51.318;6.202;2022-12-18T14:46:36;-0.10;1.00
3281;DHT22;1652;51.318;6.202;2022-12-18T14:49:33;-0.10;1.00
3281;DHT22;1652;51.318;6.202;2022-12-18T14:52:05;-0.10;1.10
3281;DHT22;1652;51.318;6.202;2022-12-18T14:54:35;-0.20;1.00
3281;DHT22;1652;51.318;6.202;2022-12-18T14:57:24;-0.10;1.00
3281;DHT22;1652;51.318;6.202;2022-12-18T14:59:52;-0.20;1.00
3281;DHT22;1652;51.318;6.202;2022-12-18T15:02:27;-0.20;1.00
3281;DHT22;1652;51.318;6.202;2022-12-18T15:05:16;-0.20;1.00
3281;DHT22;1652;51.318;6.202;2022-12-18T15:07:49;-0.20;1.00
3281;DHT22;1652;51.318;6.202;2022-12-18T15:10:27;-0.30;1.00
3281;DHT22;1652;51.318;6.202;2022-12-18T15:25:56;-0.30;12.90
3281;DHT22;1652;51.318;6.202;2022-12-18T15:28:43;-0.30;16.20
3281;DHT22;1652;51.318;6.202;2022-12-18T15:36:23;-0.30;18.30
3281;DHT22;1652;51.318;6.202;2022-12-18T15:38:54;-0.30;18.50
3281;DHT22;1652;51.318;6.202;2022-12-18T15:41:27;-0.30;16.50
3281;DHT22;1652;51.318;6.202;2022-12-18T15:43:54;-0.30;17.90
3281;DHT22;1652;51.318;6.202;2022-12-18T15:46:23;-0.30;18.30
3281;DHT22;1652;51.318;6.202;2022-12-18T15:48:55;-0.30;19.70
3281;DHT22;1652;51.318;6.202;2022-12-18T15:51:29;-0.30;24.70
3281;DHT22;1652;51.318;6.202;2022-12-18T15:54:00;-0.30;29.40
3281;DHT22;1652;51.318;6.202;2022-12-18T15:56:27;-0.30;23.10
3281;DHT22;1652;51.318;6.202;2022-12-18T15:59:24;-0.20;24.20
3281;DHT22;1652;51.318;6.202;2022-12-18T16:01:51;-0.20;22.90
3281;DHT22;1652;51.318;6.202;2022-12-18T16:04:22;-0.20;25.50
3281;DHT22;1652;51.318;6.202;2022-12-18T16:06:50;-0.20;21.90
3281;DHT22;1652;51.318;6.202;2022-12-18T16:09:38;-0.10;18.70
3281;DHT22;1652;51.318;6.202;2022-12-18T16:12:06;-0.20;28.00
3281;DHT22;1652;51.318;6.202;2022-12-18T16:14:33;-0.20;24.80
3281;DHT22;1652;51.318;6.202;2022-12-18T16:17:03;-0.20;26.40
3281;DHT22;1652;51.318;6.202;2022-12-18T16:19:30;-0.20;31.40
3281;DHT22;1652;51.318;6.202;2022-12-18T16:21:58;-0.20;24.40
3281;DHT22;1652;51.318;6.202;2022-12-18T16:24:27;-0.20;30.10
3281;DHT22;1652;51.318;6.202;2022-12-18T16:26:56;-0.10;35.50
3281;DHT22;1652;51.318;6.202;2022-12-18T16:29:25;-0.10;31.00
3281;DHT22;1652;51.318;6.202;2022-12-18T16:31:55;-0.10;20.90
3281;DHT22;1652;51.318;6.202;2022-12-18T16:34:23;-0.10;26.40
3281;DHT22;1652;51.318;6.202;2022-12-18T16:36:55;-0.10;26.90
3281;DHT22;1652;51.318;6.202;2022-12-18T16:39:30;-0.10;24.40
3281;DHT22;1652;51.318;6.202;2022-12-18T16:41:58;0.00;16.00
3281;DHT22;1652;51.318;6.202;2022-12-18T16:44:27;-0.10;14.40
3281;DHT22;1652;51.318;6.202;2022-12-18T16:46:54;0.00;11.60
3281;DHT22;1652;51.318;6.202;2022-12-18T16:49:21;-0.10;13.70
3281;DHT22;1652;51.318;6.202;2022-12-18T16:51:47;-0.10;9.90
3281;DHT22;1652;51.318;6.202;2022-12-18T16:54:14;-0.10;13.00
3281;DHT22;1652;51.318;6.202;2022-12-18T16:56:45;-0.10;16.20
3281;DHT22;1652;51.318;6.202;2022-12-18T16:59:15;-0.10;13.90
3281;DHT22;1652;51.318;6.202;2022-12-18T17:01:43;-0.10;18.10
3281;DHT22;1652;51.318;6.202;2022-12-18T17:04:10;-0.10;15.90
3281;DHT22;1652;51.318;6.202;2022-12-18T17:06:42;-0.10;21.50
3281;DHT22;1652;51.318;6.202;2022-12-18T17:09:12;-0.10;23.70
3281;DHT22;1652;51.318;6.202;2022-12-18T17:11:40;-0.10;26.40
3281;DHT22;1652;51.318;6.202;2022-12-18T17:14:09;-0.10;28.70
3281;DHT22;1652;51.318;6.202;2022-12-18T17:16:37;-0.10;30.80
3281;DHT22;1652;51.318;6.202;2022-12-18T17:19:05;-0.10;31.20
3281;DHT22;1652;51.318;6.202;2022-12-18T17:21:41;-0.10;35.50
3281;DHT22;1652;51.318;6.202;2022-12-18T17:24:08;0.00;35.90
3281;DHT22;1652;51.318;6.202;2022-12-18T17:26:36;0.00;38.00
3281;DHT22;1652;51.318;6.202;2022-12-18T17:29:03;0.00;37.70
3281;DHT22;1652;51.318;6.202;2022-12-18T17:31:30;0.00;36.00
3281;DHT22;1652;51.318;6.202;2022-12-18T17:33:57;0.00;37.30
3281;DHT22;1652;51.318;6.202;2022-12-18T17:36:24;0.00;34.50
3281;DHT22;1652;51.318;6.202;2022-12-18T17:38:56;-0.10;32.70
3281;DHT22;1652;51.318;6.202;2022-12-18T17:41:24;-0.10;42.90
3281;DHT22;1652;51.318;6.202;2022-12-18T17:44:01;-0.10;49.20
3281;DHT22;1652;51.318;6.202;2022-12-18T17:46:29;-0.10;48.20
3281;DHT22;1652;51.318;6.202;2022-12-18T17:48:58;-0.10;50.50
3281;DHT22;1652;51.318;6.202;2022-12-18T17:51:25;-0.10;42.90
3281;DHT22;1652;51.318;6.202;2022-12-18T17:53:52;-0.10;48.40
3281;DHT22;1652;51.318;6.202;2022-12-18T17:56:21;0.00;46.00
3281;DHT22;1652;51.318;6.202;2022-12-18T17:58:48;0.00;48.30
3281;DHT22;1652;51.318;6.202;2022-12-18T18:01:19;0.00;45.60
3281;DHT22;1652;51.318;6.202;2022-12-18T18:03:46;-0.10;48.00
3281;DHT22;1652;51.318;6.202;2022-12-18T18:06:19;0.00;49.70
3281;DHT22;1652;51.318;6.202;2022-12-18T18:08:45;0.00;48.80
3281;DHT22;1652;51.318;6.202;2022-12-18T18:11:15;0.00;52.80
3281;DHT22;1652;51.318;6.202;2022-12-18T18:14:02;-0.10;55.50